Time;durP1;ratioP1;P1;durP2;ratioP2;P2;SDS_P1;SDS_P2;PMS_P1;PMS_P2;Temp;Humidity;BMP_temperature;BMP_pressure;BME280_temperature;BME280_humidity;BME280_pressure;Samples;Min_cycle;Max_cycle;Signal;HPM_P1;HPM_P2
2022/09/04 00:00:36;;;;;;;3.20;2.08;;;;;;;20.29;51.75;101910.21;1242572;115;21262;-54
2022/09/04 00:03:36;;;;;;;3.67;2.47;;;;;;;20.29;51.79;101912.86;1266217;112;21195;-54
2022/09/04 00:06:06;;;;;;;4.00;2.15;;;;;;;20.28;51.57;101919.92;1214167;118;21293;-54
2022/09/04 00:08:40;;;;;;;;;;;;;;;20.29;51.63;101918.14;1216615;116;21293;-55
2022/09/04 00:11:43;;;;;;;3.10;2.02;;;;;;;20.30;51.70;101919.84;1214621;116;20160;-55
2022/09/04 00:14:25;;;;;;;2.92;2.20;;;;;;;20.30;51.73;101925.13;1214744;116;21230;-56
2022/09/04 00:17:02;;;;;;;2.65;2.35;;;;;;;20.30;51.69;101923.81;1214562;116;21725;-59
2022/09/04 00:20:03;;;;;;;3.50;2.42;;;;;;;20.28;51.51;101925.20;1214764;116;21213;-53
2022/09/04 00:23:05;;;;;;;2.25;1.98;;;;;;;20.30;51.57;101929.58;1291714;107;21219;-53
2022/09/04 00:25:56;;;;;;;4.10;2.37;;;;;;;20.28;51.68;101925.66;1311513;109;21705;-56
2022/09/04 00:28:38;;;;;;;3.22;2.22;;;;;;;20.25;51.70;101931.09;1322580;106;21181;-53
2022/09/04 00:31:38;;;;;;;3.05;2.27;;;;;;;20.23;51.56;101927.20;1322326;106;21720;-59
2022/09/04 00:34:29;;;;;;;3.75;2.77;;;;;;;20.23;51.79;101926.34;1353202;104;21228;-58
2022/09/04 00:37:00;;;;;;;3.30;2.67;;;;;;;20.22;51.72;101927.25;1362647;101;21176;-57
2022/09/04 00:39:47;;;;;;;2.90;2.60;;;;;;;20.22;51.85;101929.44;1423848;99;21128;-54
2022/09/04 00:42:57;;;;;;;3.30;2.12;;;;;;;20.22;51.70;101927.25;1446999;95;21604;-54
2022/09/04 00:45:57;;;;;;;4.62;2.30;;;;;;;20.20;51.65;101932.61;1528628;92;21122;-59
2022/09/04 00:49:07;;;;;;;5.90;2.47;;;;;;;20.19;51.76;101937.94;1521753;92;21082;-55
2022/09/04 00:51:48;;;;;;;2.50;2.30;;;;;;;20.17;51.69;101942.42;1496614;95;21097;-53
2022/09/04 00:54:54;;;;;;;3.25;2.47;;;;;;;20.12;51.63;101949.22;1483346;97;21661;-56
2022/09/04 00:57:59;;;;;;;3.75;2.35;;;;;;;20.08;51.53;101946.31;1430031;99;21136;-53
2022/09/04 01:00:27;;;;;;;2.47;2.27;;;;;;;20.06;51.82;101949.94;1411008;102;21156;-55
2022/09/04 01:03:29;;;;;;;4.40;2.65;;;;;;;20.03;51.99;101953.56;1411090;100;21129;-54
2022/09/04 01:06:29;;;;;;;3.65;2.52;;;;;;;20.04;51.88;101959.72;1435347;98;21882;-53
2022/09/04 01:09:21;;;;;;;2.62;2.35;;;;;;;20.03;51.94;101963.30;1434332;100;21626;-58
2022/09/04 01:12:28;;;;;;;3.42;2.83;;;;;;;20.02;52.21;101970.81;1429372;100;21192;-55
2022/09/04 01:15:22;;;;;;;2.17;1.98;;;;;;;20.01;52.22;101967.78;1376680;102;21223;-54
2022/09/04 01:18:07;;;;;;;2.60;2.20;;;;;;;20.00;52.30;101971.33;1376843;102;21201;-52
2022/09/04 01:21:08;;;;;;;4.28;2.30;;;;;;;20.03;52.34;101968.58;1338705;106;21119;-61
2022/09/04 01:24:01;;;;;;;4.35;2.35;;;;;;;20.03;52.22;101974.70;1359357;105;21645;-54
2022/09/04 01:26:58;;;;;;;4.05;2.65;;;;;;;20.06;52.25;101969.76;1354857;105;21202;-53
2022/09/04 01:29:51;;;;;;;3.70;2.75;;;;;;;20.06;52.37;101973.27;1296635;111;21189;-53
2022/09/04 01:32:49;;;;;;;3.25;2.40;;;;;;;20.05;52.39;101969.37;1296513;109;21148;-57
2022/09/04 01:36:06;;;;;;;3.12;2.47;;;;;;;20.06;52.40;101973.72;1343534;105;21714;-53
2022/09/04 01:38:49;;;;;;;3.58;2.30;;;;;;;20.03;52.54;101971.22;1418753;100;21147;-53
2022/09/04 01:41:47;;;;;;;3.42;2.72;;;;;;;20.02;52.72;101975.64;1429062;100;21139;-54
2022/09/04 01:44:14;;;;;;;4.40;2.87;;;;;;;20.02;52.54;101969.48;1425374;101;21636;-54
2022/09/04 01:46:59;;;;;;;2.92;2.40;;;;;;;19.99;52.80;101972.27;1426770;99;21144;-53
2022/09/04 01:49:57;;;;;;;5.47;2.98;;;;;;;19.97;52.85;101978.08;1425267;99;21132;-53
2022/09/04 01:52:57;;;;;;;3.65;2.65;;;;;;;19.94;52.87;101969.81;1424063;99;21170;-54
2022/09/04 01:55:44;;;;;;;3.80;2.40;;;;;;;19.96;52.79;101972.38;1424221;101;21111;-54
2022/09/04 01:58:44;;;;;;;2.87;2.67;;;;;;;19.94;52.74;101973.78;1438171;98;21098;-54
2022/09/04 02:01:34;;;;;;;6.75;2.80;;;;;;;19.95;52.96;101970.66;1450942;98;21115;-54
2022/09/04 02:04:20;;;;;;;3.45;2.83;;;;;;;19.96;52.85;101972.38;1450731;98;21574;-54
2022/09/04 02:07:01;;;;;;;3.40;2.52;;;;;;;19.97;52.70;101970.16;1531031;92;21065;-54
2022/09/04 02:09:58;;;;;;;3.05;2.72;;;;;;;19.99;52.67;101974.92;1556750;90;21096;-55
2022/09/04 02:12:49;;;;;;;4.75;3.08;;;;;;;19.97;52.74;101976.77;1553466;90;21116;-54
2022/09/04 02:15:35;;;;;;;4.15;2.55;;;;;;;19.96;52.75;101977.67;1551581;90;21069;-53
2022/09/04 02:18:43;;;;;;;4.22;2.12;;;;;;;19.95;52.64;101982.09;1550246;90;21544;-54
2022/09/04 02:21:29;;;;;;;3.45;2.77;;;;;;;19.93;52.60;101983.06;1543900;92;21104;-53
2022/09/04 02:24:21;;;;;;;2.80;2.40;;;;;;;19.93;52.68;101980.42;1533963;93;21079;-54
2022/09/04 02:26:57;;;;;;;;;;;;;;;19.93;52.66;101980.42;1523490;92;21587;-53
2022/09/04 02:29:45;;;;;;;3.30;2.70;;;;;;;19.92;52.48;101982.23;1534507;93;20125;-54
2022/09/04 02:32:38;;;;;;;3.08;2.77;;;;;;;19.92;52.53;101982.68;1528021;94;21063;-54
2022/09/04 02:35:41;;;;;;;3.22;2.70;;;;;;;19.91;52.51;101984.91;1501538;95;21122;-55
2022/09/04 02:38:42;;;;;;;2.60;2.40;;;;;;;19.89;52.71;101984.98;1492237;95;21172;-53
2022/09/04 02:41:36;;;;;;;2.90;2.60;;;;;;;19.86;52.79;101989.54;1514872;93;21118;-52
2022/09/04 02:44:45;;;;;;;3.15;2.72;;;;;;;19.85;52.87;101979.88;1537248;93;21087;-53
2022/09/04 02:47:53;;;;;;;3.20;2.35;;;;;;;19.85;52.88;101982.06;1537442;93;21119;-53
2022/09/04 02:50:52;;;;;;;3.05;2.50;;;;;;;19.88;53.00;101983.73;1478359;96;21097;-54
2022/09/04 02:53:53;;;;;;;4.85;2.98;;;;;;;19.91;52.87;101979.63;1416797;101;21171;-53
2022/09/04 02:56:26;;;;;;;4.60;2.70;;;;;;;19.91;52.45;101983.13;1420383;99;21630;-53
2022/09/04 02:59:35;;;;;;;2.85;2.50;;;;;;;19.90;52.80;101981.43;1448896;97;21115;-56
2022/09/04 03:02:05;;;;;;;2.83;2.62;;;;;;;19.91;52.69;101974.34;1435792;98;21098;-54
2022/09/04 03:05:01;;;;;;;4.37;3.35;;;;;;;19.92;52.72;101976.08;1424968;100;21176;-53
2022/09/04 03:07:32;;;;;;;3.67;2.67;;;;;;;19.93;52.67;101975.14;1425388;100;21206;-50
2022/09/04 03:10:17;;;;;;;2.60;2.37;;;;;;;19.97;52.65;101971.48;1435519;99;21143;-53
2022/09/04 03:13:06;;;;;;;3.33;2.95;;;;;;;19.99;52.61;101972.27;1435083;99;21589;-55
2022/09/04 03:15:53;;;;;;;3.10;2.50;;;;;;;20.01;52.54;101969.11;1416419;100;21128;-53
2022/09/04 03:18:29;;;;;;;3.65;2.80;;;;;;;20.02;52.42;101970.35;1414021;100;21176;-51
2022/09/04 03:21:16;;;;;;;4.40;2.90;;;;;;;20.01;52.48;101971.27;1416220;100;21178;-51
2022/09/04 03:24:04;;;;;;;5.17;2.90;;;;;;;20.01;52.53;101969.11;1379469;103;21192;-55
2022/09/04 03:26:45;;;;;;;3.52;3.22;;;;;;;20.01;52.39;101969.11;1391004;100;21651;-55
2022/09/04 03:29:27;;;;;;;3.30;2.90;;;;;;;20.00;52.35;101972.66;1457009;97;21629;-53
2022/09/04 03:32:11;;;;;;;3.37;3.00;;;;;;;19.99;52.49;101980.20;1433553;99;21139;-54
2022/09/04 03:35:05;;;;;;;4.42;2.70;;;;;;;19.97;52.57;101983.37;1456884;97;21105;-55
2022/09/04 03:38:02;;;;;;;4.58;3.25;;;;;;;19.93;52.72;101991.86;1432050;99;21194;-55
2022/09/04 03:40:43;;;;;;;4.33;3.30;;;;;;;19.89;52.78;101994.68;1447986;99;21160;-59
2022/09/04 03:43:47;;;;;;;2.92;2.50;;;;;;;19.84;52.94;101995.34;1470649;96;21204;-53
2022/09/04 03:46:34;;;;;;;3.47;2.83;;;;;;;19.83;53.09;102001.08;1471955;96;21127;-53
2022/09/04 03:49:56;;;;;;;4.83;2.67;;;;;;;19.86;53.01;102005.39;1472188;96;21650;-54
2022/09/04 03:52:55;;;;;;;2.98;2.65;;;;;;;19.88;52.93;102012.79;1511711;95;21092;-55
2022/09/04 03:55:32;;;;;;;4.22;3.08;;;;;;;19.91;52.78;102016.16;1516812;95;21112;-58
2022/09/04 03:58:25;;;;;;;5.40;2.95;;;;;;;19.94;52.71;102021.78;1516955;93;21089;-53
2022/09/04 04:01:24;;;;;;;3.15;2.77;;;;;;;19.96;52.58;102027.41;1521369;93;21596;-55
2022/09/04 04:04:16;;;;;;;3.27;2.85;;;;;;;19.99;52.42;102017.19;1546391;91;21099;-53
2022/09/04 04:07:07;;;;;;;3.42;2.98;;;;;;;19.99;52.34;102019.83;1543703;91;21159;-52
2022/09/04 04:09:45;;;;;;;5.22;2.95;;;;;;;19.98;52.40;102016.32;1540995;93;21085;-54
2022/09/04 04:12:50;;;;;;;3.17;2.87;;;;;;;19.96;52.33;102023.45;1543919;91;21193;-55
2022/09/04 04:15:44;;;;;;;3.12;2.83;;;;;;;19.94;52.37;102020.47;1547491;86;21045;-57
2022/09/04 04:18:31;;;;;;;3.20;2.90;;;;;;;19.93;52.13;102027.97;1634412;86;21810;-56
2022/09/04 04:21:03;;;;;;;2.92;2.60;;;;;;;19.92;52.30;102047.41;1637047;86;21044;-53
2022/09/04 04:24:08;;;;;;;3.77;2.92;;;;;;;19.93;52.28;102043.83;1614370;88;21061;-52
2022/09/04 04:26:58;;;;;;;2.98;2.67;;;;;;;19.94;52.13;102048.20;1604901;88;21128;-53
2022/09/04 04:29:40;;;;;;;3.22;2.87;;;;;;;19.94;52.14;102041.59;1611593;88;21094;-54
2022/09/04 04:32:25;;;;;;;;;;;;;;;19.93;52.14;102039.86;1616948;88;21062;-51
2022/09/04 04:35:11;;;;;;;3.62;3.08;;;;;;;19.94;52.23;102033.67;1614735;88;20112;-55
2022/09/04 04:38:04;;;;;;;3.12;2.50;;;;;;;19.93;52.21;102043.83;1614626;88;21054;-53
2022/09/04 04:40:51;;;;;;;3.83;3.30;;;;;;;19.93;52.00;102042.50;1603783;89;21157;-51
2022/09/04 04:43:26;;;;;;;3.10;2.80;;;;;;;19.92;52.05;102033.74;1603734;89;21553;-56
2022/09/04 04:46:10;;;;;;;3.80;2.90;;;;;;;19.92;51.88;102031.55;1603811;89;21102;-55
2022/09/04 04:49:06;;;;;;;4.22;2.95;;;;;;;19.91;51.95;102031.14;1606549;89;21585;-52
2022/09/04 04:52:25;;;;;;;3.83;3.20;;;;;;;19.90;51.87;102040.00;1603285;88;21519;-52
2022/09/04 04:55:05;;;;;;;4.58;3.30;;;;;;;19.91;51.95;102047.86;1568083;90;21546;-58
2022/09/04 04:58:06;;;;;;;4.70;3.00;;;;;;;19.92;52.01;102061.94;1565338;90;21051;-54
2022/09/04 05:00:54;;;;;;;3.92;2.72;;;;;;;19.90;51.95;102059.81;1571581;91;21563;-55
2022/09/04 05:03:43;;;;;;;3.92;3.12;;;;;;;19.90;51.90;102061.13;1570718;91;21091;-53
2022/09/04 05:06:29;;;;;;;3.27;2.90;;;;;;;19.91;52.01;102061.52;1496686;96;21559;-53
2022/09/04 05:09:21;;;;;;;3.40;2.80;;;;;;;19.92;51.83;102069.86;1497400;96;21180;-54
2022/09/04 05:12:03;;;;;;;7.00;3.45;;;;;;;19.94;51.74;102075.48;1501168;94;21516;-53
2022/09/04 05:14:36;;;;;;;;;;;;;;;19.96;51.51;102075.42;1457442;98;21140;-53
2022/09/04 05:17:24;;;;;;;3.67;2.92;;;;;;;19.98;51.30;102077.55;1455401;98;20138;-56
2022/09/04 05:20:33;;;;;;;5.22;3.25;;;;;;;19.98;51.40;102089.43;1457242;98;21119;-53
2022/09/04 05:23:28;;;;;;;3.87;3.02;;;;;;;20.00;51.47;102082.30;1461653;97;21160;-53
2022/09/04 05:26:22;;;;;;;3.95;3.20;;;;;;;20.03;51.46;102095.41;1462582;98;21131;-55
2022/09/04 05:29:42;;;;;;;4.03;2.98;;;;;;;20.06;51.40;102103.20;1425248;100;21139;-52
2022/09/04 05:32:38;;;;;;;3.92;3.15;;;;;;;20.08;51.29;102102.22;1457349;97;21118;-55
2022/09/04 05:35:43;;;;;;;3.47;2.80;;;;;;;20.11;51.19;102103.89;1446437;98;21167;-57
2022/09/04 05:38:21;;;;;;;3.02;2.47;;;;;;;20.13;51.29;102103.36;1451390;98;21094;-61
2022/09/04 05:41:23;;;;;;;3.27;2.98;;;;;;;20.18;51.25;102111.95;1379385;103;21224;-56
2022/09/04 05:43:59;;;;;;;7.78;3.10;;;;;;;20.22;50.98;102110.94;1393391;102;21125;-60
2022/09/04 05:47:04;;;;;;;4.25;2.85;;;;;;;20.28;50.84;102109.37;1399572;102;21712;-53
2022/09/04 05:49:48;;;;;;;3.65;3.22;;;;;;;20.32;50.89;102112.28;1421978;99;21649;-52
2022/09/04 05:52:37;;;;;;;4.67;3.10;;;;;;;20.36;50.77;102116.52;1441873;98;21636;-54
2022/09/04 05:55:30;;;;;;;3.33;2.98;;;;;;;20.40;50.50;102108.89;1449352;98;21616;-57
2022/09/04 05:58:22;;;;;;;3.87;3.00;;;;;;;20.45;50.40;102109.55;1447382;98;21116;-53
2022/09/04 06:01:23;;;;;;;3.90;3.37;;;;;;;20.49;50.34;102115.11;1432404;99;21128;-54
2022/09/04 06:04:22;;;;;;;3.08;2.75;;;;;;;20.53;50.27;102117.16;1389929;103;21665;-53
2022/09/04 06:07:00;;;;;;;5.42;3.40;;;;;;;20.55;50.23;102121.47;1438016;99;21112;-53
2022/09/04 06:09:57;;;;;;;3.30;2.70;;;;;;;20.59;50.03;102124.38;1452647;98;21128;-53
2022/09/04 06:12:49;;;;;;;3.27;2.87;;;;;;;20.61;50.05;102123.02;1392638;102;21602;-60
2022/09/04 06:15:43;;;;;;;5.47;3.22;;;;;;;20.65;49.85;102122.80;1392534;102;21680;-53
2022/09/04 06:18:41;;;;;;;4.30;2.95;;;;;;;20.69;49.75;102124.39;1421718;97;21704;-53
2022/09/04 06:21:22;;;;;;;3.15;2.85;;;;;;;20.75;49.68;102128.59;1455803;98;21145;-53
2022/09/04 06:24:24;;;;;;;5.47;2.75;;;;;;;20.77;49.26;102128.89;1453272;98;21127;-53
2022/09/04 06:26:57;;;;;;;;;;;;;;;20.80;49.32;102123.94;1458264;98;21663;-52
2022/09/04 06:29:45;;;;;;;2.80;2.52;;;;;;;20.83;49.14;102122.05;1398334;101;20130;-52
2022/09/04 06:32:42;;;;;;;3.72;3.00;;;;;;;20.86;49.11;102124.55;1378003;103;21680;-54
2022/09/04 06:35:43;;;;;;;3.70;2.72;;;;;;;20.88;49.07;102117.41;1371953;103;21226;-54
2022/09/04 06:38:54;;;;;;;2.60;2.40;;;;;;;20.93;48.94;102120.72;1372083;103;21150;-52
2022/09/04 06:42:04;;;;;;;3.90;2.90;;;;;;;20.99;48.69;102123.10;1402423;99;21098;-52
2022/09/04 06:44:53;;;;;;;2.60;2.40;;;;;;;21.08;48.53;102128.95;1436123;99;21090;-54
2022/09/04 06:47:41;;;;;;;3.05;2.77;;;;;;;21.13;48.39;102132.24;1433310;99;21174;-53
2022/09/04 06:50:19;;;;;;;3.20;2.17;;;;;;;21.17;48.47;102136.47;1441146;98;21140;-55
2022/09/04 06:53:18;;;;;;;3.20;2.75;;;;;;;21.20;48.28;102141.66;1444866;97;21123;-58
2022/09/04 06:56:13;;;;;;;2.60;2.40;;;;;;;21.23;48.15;102137.53;1446232;97;21119;-52
2022/09/04 06:59:21;;;;;;;4.12;3.00;;;;;;;21.26;47.93;102141.38;1447669;97;21099;-52
2022/09/04 07:02:17;;;;;;;4.92;2.85;;;;;;;21.29;48.00;102143.91;1444276;97;21603;-54
2022/09/04 07:05:04;;;;;;;4.62;2.92;;;;;;;21.35;47.72;102142.31;1444956;97;21154;-56
2022/09/04 07:08:01;;;;;;;4.47;2.75;;;;;;;21.39;47.82;102142.56;1505289;93;21091;-53
2022/09/04 07:10:37;;;;;;;3.95;3.10;;;;;;;21.45;48.08;102150.23;1568135;89;21073;-52
2022/09/04 07:13:32;;;;;;;4.45;3.10;;;;;;;21.49;48.08;102147.38;1610479;86;21028;-54
2022/09/04 07:16:34;;;;;;;3.55;2.92;;;;;;;21.53;47.96;102148.09;1651762;87;21497;-58
2022/09/04 07:19:29;;;;;;;3.33;3.02;;;;;;;21.59;47.94;102153.12;1591253;89;21091;-53
2022/09/04 07:22:42;;;;;;;3.02;2.72;;;;;;;21.64;47.93;102165.67;1590028;89;21528;-54
2022/09/04 07:25:26;;;;;;;3.20;2.90;;;;;;;21.68;48.20;102163.27;1526914;93;21091;-52
2022/09/04 07:28:31;;;;;;;3.45;2.95;;;;;;;21.74;48.18;102164.34;1469784;98;21155;-56
2022/09/04 07:31:27;;;;;;;3.58;2.72;;;;;;;21.78;48.19;102159.30;1463117;97;21163;-55
2022/09/04 07:34:20;;;;;;;3.92;2.87;;;;;;;21.84;47.87;102157.73;1425865;100;21140;-56
2022/09/04 07:37:04;;;;;;;3.52;2.87;;;;;;;21.85;47.85;102151.02;1426098;100;21563;-54
2022/09/04 07:39:48;;;;;;;3.12;2.62;;;;;;;21.89;47.75;102158.35;1427786;100;21095;-52
2022/09/04 07:42:27;;;;;;;4.45;2.72;;;;;;;21.93;47.87;102157.77;1369436;104;21216;-52
2022/09/04 07:45:17;;;;;;;2.90;2.60;;;;;;;21.98;47.99;102155.28;1316072;106;21184;-53
2022/09/04 07:47:47;;;;;;;5.22;3.02;;;;;;;22.06;47.65;102159.77;1304813;109;21169;-55
2022/09/04 07:50:18;;;;;;;3.10;2.80;;;;;;;22.13;47.55;102162.53;1333687;107;21232;-53
2022/09/04 07:53:23;;;;;;;3.30;2.90;;;;;;;22.16;47.20;102153.09;1333825;107;21272;-52
2022/09/04 07:56:26;;;;;;;3.17;2.72;;;;;;;22.22;47.26;102154.12;1348371;105;21756;-53
2022/09/04 07:59:32;;;;;;;3.08;2.77;;;;;;;22.28;47.28;102149.84;1299956;109;21182;-53
2022/09/04 08:02:07;;;;;;;4.05;2.52;;;;;;;22.35;46.96;102159.23;1315082;108;21238;-56
2022/09/04 08:04:50;;;;;;;3.65;2.80;;;;;;;22.40;46.67;102151.06;1310735;108;21234;-54
2022/09/04 08:07:44;;;;;;;2.67;2.47;;;;;;;22.42;46.41;102150.52;1309628;108;21330;-53
2022/09/04 08:10:31;;;;;;;3.10;2.67;;;;;;;22.41;46.43;102153.62;1306248;103;21200;-54
2022/09/04 08:13:38;;;;;;;2.10;1.90;;;;;;;22.40;46.12;102151.89;1376636;103;21196;-56
2022/09/04 08:16:09;;;;;;;2.40;1.95;;;;;;;22.40;46.21;102143.94;1342964;105;21154;-58
2022/09/04 08:19:26;;;;;;;2.62;1.77;;;;;;;22.40;44.62;102146.59;1411071;100;21089;-54
2022/09/04 08:21:53;;;;;;;3.10;1.87;;;;;;;22.44;43.97;102145.50;1427235;100;21190;-56
2022/09/04 08:24:59;;;;;;;3.40;2.20;;;;;;;22.52;43.64;102149.96;1431899;100;21114;-53
2022/09/04 08:27:54;;;;;;;3.02;1.75;;;;;;;22.56;42.94;102154.21;1434670;100;21075;-54
2022/09/04 08:30:20;;;;;;;3.92;1.80;;;;;;;22.64;42.23;102156.05;1435470;100;21551;-58
2022/09/04 08:33:17;;;;;;;2.37;2.02;;;;;;;22.70;41.96;102151.35;1396185;102;21096;-54
2022/09/04 08:36:00;;;;;;;1.90;1.80;;;;;;;22.77;42.22;102151.45;1470361;97;21098;-54
2022/09/04 08:38:39;;;;;;;2.65;1.70;;;;;;;22.85;42.46;102158.55;1513042;95;21659;-56
2022/09/04 08:41:48;;;;;;;3.05;2.00;;;;;;;22.97;41.90;102153.94;1584240;90;21043;-52
2022/09/04 08:44:23;;;;;;;2.42;1.75;;;;;;;23.07;41.65;102153.86;1564781;91;21039;-54
2022/09/04 08:47:38;;;;;;;2.00;1.90;;;;;;;23.16;40.91;102158.70;1562640;91;21058;-54
2022/09/04 08:50:26;;;;;;;2.77;1.90;;;;;;;23.21;40.75;102160.17;1584875;88;21044;-58
2022/09/04 08:53:18;;;;;;;4.45;2.47;;;;;;;23.27;41.15;102153.67;1619601;87;21578;-57
2022/09/04 08:56:07;;;;;;;2.67;1.65;;;;;;;23.33;41.53;102152.05;1619653;87;21130;-54
2022/09/04 08:59:05;;;;;;;2.35;1.70;;;;;;;23.44;41.22;102155.02;1600649;88;21052;-54
2022/09/04 09:01:56;;;;;;;1.82;1.50;;;;;;;23.57;40.74;102160.08;1604192;88;21136;-56
2022/09/04 09:04:35;;;;;;;2.12;1.80;;;;;;;23.72;40.33;102167.20;1595352;88;21065;-55
2022/09/04 09:07:22;;;;;;;1.90;1.80;;;;;;;23.82;40.10;102171.07;1604629;88;21057;-56
2022/09/04 09:10:09;;;;;;;2.67;1.80;;;;;;;23.89;39.88;102173.80;1578545;91;21157;-55
2022/09/04 09:13:21;;;;;;;3.35;1.90;;;;;;;23.93;39.79;102167.36;1571314;91;21068;-53
2022/09/04 09:16:12;;;;;;;4.05;2.25;;;;;;;23.97;39.94;102172.03;1555280;91;21588;-54
2022/09/04 09:19:11;;;;;;;3.27;1.82;;;;;;;24.02;39.92;102172.19;1560444;91;21068;-52
2022/09/04 09:24:52;;;;;;;2.10;1.80;;;;;;;24.06;40.03;102175.56;1491688;95;21108;-55
2022/09/04 09:27:42;;;;;;;2.50;1.80;;;;;;;24.08;40.50;102172.34;1491206;95;21153;-53
2022/09/04 09:30:20;;;;;;;2.33;1.85;;;;;;;24.12;40.27;102181.41;1491916;95;21635;-55
2022/09/04 09:33:24;;;;;;;3.25;2.20;;;;;;;24.17;40.35;102183.81;1491514;95;21117;-52
2022/09/04 09:36:24;;;;;;;3.27;2.35;;;;;;;24.21;40.74;102179.54;1493840;95;21137;-52
2022/09/04 09:39:16;;;;;;;4.03;2.13;;;;;;;24.28;41.04;102180.55;1489352;95;21157;-52
2022/09/04 09:42:03;;;;;;;2.85;1.90;;;;;;;24.33;40.91;102174.48;1429136;100;21657;-54
2022/09/04 09:44:57;;;;;;;2.67;2.05;;;;;;;24.41;40.78;102174.91;1428913;100;21112;-52
2022/09/04 09:47:52;;;;;;;2.62;2.00;;;;;;;24.50;40.66;102167.73;1430935;100;21091;-52
2022/09/04 09:50:45;;;;;;;2.77;1.85;;;;;;;24.60;39.97;102171.58;1434944;99;21158;-53
2022/09/04 09:53:52;;;;;;;3.10;1.77;;;;;;;24.66;39.89;102180.55;1398688;103;21136;-54
2022/09/04 09:56:52;;;;;;;1.70;1.52;;;;;;;24.67;39.66;102174.25;1385230;103;21135;-53
2022/09/04 10:00:01;;;;;;;2.50;1.95;;;;;;;24.64;39.34;102175.78;1431952;99;21170;-55
2022/09/04 10:03:08;;;;;;;1.62;1.52;;;;;;;24.64;39.02;102179.77;1415723;100;21127;-51
2022/09/04 10:06:34;;;;;;;2.58;1.82;;;;;;;24.63;39.00;102174.05;1440798;99;21143;-59
2022/09/04 10:09:30;;;;;;;3.10;1.30;;;;;;;24.63;39.00;102174.05;1416049;101;21701;-52
2022/09/04 10:12:47;;;;;;;1.65;1.25;;;;;;;24.61;38.77;102173.28;1415994;101;21668;-54
2022/09/04 10:15:59;;;;;;;1.70;1.60;;;;;;;24.60;38.41;102178.23;1415831;101;21152;-54
2022/09/04 10:18:55;;;;;;;3.98;1.57;;;;;;;24.60;38.49;102180.90;1428977;98;21111;-55
2022/09/04 10:21:37;;;;;;;1.95;1.72;;;;;;;24.61;38.54;102184.80;1432158;99;21174;-54
2022/09/04 10:24:34;;;;;;;3.60;1.55;;;;;;;24.63;38.26;102175.38;1456256;98;21131;-52
2022/09/04 10:27:37;;;;;;;1.70;1.60;;;;;;;24.66;38.11;102184.53;1458567;98;21054;-52
2022/09/04 10:30:11;;;;;;;3.08;1.22;;;;;;;24.69;38.33;102175.89;1454837;97;21156;-52
2022/09/04 10:32:53;;;;;;;2.17;1.40;;;;;;;24.77;38.07;102178.16;1455931;97;21677;-52
2022/09/04 10:35:28;;;;;;;2.67;1.50;;;;;;;24.84;37.67;102172.84;1460430;97;21175;-52
2022/09/04 10:38:20;;;;;;;1.80;1.60;;;;;;;24.89;37.35;102182.77;1453263;97;21160;-53
2022/09/04 10:41:09;;;;;;;2.25;1.30;;;;;;;24.86;36.80;102168.28;1426712;100;21179;-54
2022/09/04 10:44:14;;;;;;;1.92;1.55;;;;;;;24.86;36.80;102168.28;1406097;101;21166;-52
2022/09/04 10:47:04;;;;;;;2.58;1.50;;;;;;;24.84;36.85;102172.84;1404756;102;21105;-54
2022/09/04 10:50:10;;;;;;;3.27;2.08;;;;;;;24.81;37.12;102171.70;1446597;97;21104;-56
2022/09/04 10:53:08;;;;;;;2.22;1.57;;;;;;;24.78;37.14;102173.20;1475575;97;21182;-53
2022/09/04 10:56:15;;;;;;;1.50;1.40;;;;;;;24.75;36.96;102170.73;1457816;98;21097;-52
2022/09/04 10:59:22;;;;;;;3.02;1.67;;;;;;;24.76;37.33;102169.31;1457119;98;21588;-54
2022/09/04 11:02:03;;;;;;;1.90;1.65;;;;;;;24.76;37.33;102169.31;1426850;100;21138;-56
2022/09/04 11:05:00;;;;;;;1.47;1.37;;;;;;;24.79;37.42;102170.94;1450177;99;21126;-55
2022/09/04 11:08:24;;;;;;;1.75;1.52;;;;;;;24.79;37.42;102170.94;1437678;98;21141;-57
2022/09/04 11:11:18;;;;;;;2.27;1.40;;;;;;;24.82;37.06;102166.75;1447378;99;21157;-52
2022/09/04 11:14:17;;;;;;;1.40;1.30;;;;;;;24.83;37.06;102165.31;1431608;100;21179;-53
2022/09/04 11:17:15;;;;;;;3.15;1.45;;;;;;;24.85;37.17;102158.59;1397142;101;21635;-53
2022/09/04 11:20:22;;;;;;;1.60;1.50;;;;;;;24.87;36.86;102158.03;1431346;99;21128;-56
2022/09/04 11:23:31;;;;;;;1.60;1.50;;;;;;;24.89;37.11;102160.13;1436836;99;21165;-57
2022/09/04 11:26:25;;;;;;;1.75;1.50;;;;;;;24.89;37.11;102160.13;1436339;99;21122;-58
2022/09/04 11:29:12;;;;;;;2.67;1.40;;;;;;;24.93;37.28;102158.53;1431551;99;21091;-54
2022/09/04 11:32:00;;;;;;;2.02;1.37;;;;;;;24.97;36.75;102160.06;1438779;99;21090;-55
2022/09/04 11:34:57;;;;;;;1.52;1.42;;;;;;;25.02;36.63;102159.77;1450119;97;21568;-52
2022/09/04 11:38:06;;;;;;;2.65;1.50;;;;;;;25.06;36.43;102169.28;1462494;97;21110;-59
2022/09/04 11:41:00;;;;;;;2.00;1.62;;;;;;;25.08;36.24;102158.06;1470575;96;21185;-53
2022/09/04 11:44:04;;;;;;;1.47;1.37;;;;;;;25.09;36.29;102158.45;1475821;95;21631;-60
2022/09/04 11:46:53;;;;;;;3.12;1.50;;;;;;;25.06;36.32;102163.95;1470572;96;21126;-55
2022/09/04 11:49:55;;;;;;;2.95;1.70;;;;;;;25.06;36.32;102163.95;1468003;96;21121;-55
2022/09/04 11:52:41;;;;;;;1.82;1.50;;;;;;;25.06;36.43;102160.45;1477674;95;21104;-59
2022/09/04 11:55:25;;;;;;;2.12;1.65;;;;;;;25.07;36.55;102162.16;1416006;100;21124;-56
2022/09/04 11:58:23;;;;;;;3.20;1.52;;;;;;;25.08;36.28;102160.72;1416249;101;21143;-54
2022/09/04 12:01:27;;;;;;;1.52;1.37;;;;;;;25.07;36.13;102161.69;1416172;100;21132;-55
2022/09/04 12:04:33;;;;;;;1.80;1.47;;;;;;;25.09;36.02;102165.11;1411551;100;21557;-55
2022/09/04 12:07:12;;;;;;;2.83;1.50;;;;;;;25.09;36.02;102165.11;1402111;100;21336;-55
2022/09/04 12:10:16;;;;;;;3.00;1.52;;;;;;;25.13;35.92;102162.65;1416210;100;22210;-58
2022/09/04 12:13:21;;;;;;;3.08;1.37;;;;;;;25.17;35.89;102158.84;1385697;101;21118;-54
2022/09/04 12:16:12;;;;;;;1.47;1.37;;;;;;;25.18;36.10;102155.25;1394713;101;21114;-56
2022/09/04 12:19:03;;;;;;;1.90;1.40;;;;;;;25.19;36.17;102163.61;1394895;101;21138;-54
2022/09/04 12:22:13;;;;;;;2.80;1.60;;;;;;;25.20;36.07;102160.02;1394697;101;21191;-57
2022/09/04 12:25:18;;;;;;;1.30;1.20;;;;;;;25.21;36.04;102159.52;1391841;100;21199;-55
2022/09/04 12:28:33;;;;;;;2.20;1.22;;;;;;;25.22;35.54;102166.57;1399829;98;21187;-54
2022/09/04 12:31:35;;;;;;;10.82;2.05;;;;;;;25.21;35.23;102167.03;1407877;101;21234;-54
2022/09/04 12:34:30;;;;;;;1.65;1.55;;;;;;;25.21;35.41;102164.84;1509893;95;21109;-54
2022/09/04 12:37:26;;;;;;;2.30;1.40;;;;;;;25.16;35.33;102166.48;1511203;95;21041;-56
2022/09/04 12:40:28;;;;;;;1.57;1.30;;;;;;;25.11;35.62;102167.21;1510786;95;21617;-58
2022/09/04 12:43:23;;;;;;;1.70;1.60;;;;;;;25.11;35.62;102167.21;1509388;95;21638;-53
2022/09/04 12:46:20;;;;;;;2.77;1.50;;;;;;;25.09;35.86;102166.45;1523424;93;21100;-55
2022/09/04 12:49:35;;;;;;;1.95;1.40;;;;;;;25.07;35.56;102169.67;1537128;93;21124;-54
2022/09/04 12:52:36;;;;;;;1.40;1.30;;;;;;;25.05;35.55;102168.91;1538822;93;21660;-52
2022/09/04 12:55:21;;;;;;;1.52;1.35;;;;;;;25.05;35.39;102159.59;1528298;93;21053;-55
2022/09/04 12:58:10;;;;;;;2.65;1.40;;;;;;;25.06;35.65;102161.79;1523213;93;21080;-53
2022/09/04 13:00:43;;;;;;;2.62;1.37;;;;;;;25.04;35.69;102157.86;1523731;93;21145;-55
2022/09/04 13:03:21;;;;;;;1.70;1.20;;;;;;;25.05;35.76;102162.25;1530229;93;21121;-55
2022/09/04 13:06:05;;;;;;;1.47;1.37;;;;;;;25.04;35.05;102165.85;1451000;97;21109;-55
2022/09/04 13:08:43;;;;;;;1.90;1.50;;;;;;;25.03;35.10;102168.15;1515839;94;21152;-56
2022/09/04 13:11:41;;;;;;;1.42;1.32;;;;;;;24.98;35.35;102160.89;1493917;94;21133;-53
2022/09/04 13:15:06;;;;;;;3.83;1.57;;;;;;;24.98;35.35;102160.89;1488504;95;21151;-55
2022/09/04 13:17:57;;;;;;;3.12;1.52;;;;;;;24.99;35.12;102171.95;1475733;97;21123;-54
2022/09/04 13:21:07;;;;;;;1.67;1.10;;;;;;;24.96;34.82;102176.97;1472033;97;21635;-55
2022/09/04 13:23:53;;;;;;;3.55;1.57;;;;;;;24.93;34.72;102170.98;1476526;97;21133;-53
2022/09/04 13:26:45;;;;;;;2.45;1.40;;;;;;;24.92;34.72;102167.91;1474850;97;21109;-54